createdAt,value
2023-09-29T00:00:51.339Z,5.18
2023-09-29T00:03:20.394Z,5.60
2023-09-29T00:05:47.916Z,3.92
2023-09-29T00:08:17.569Z,5.93
2023-09-29T00:10:47.212Z,5.53
2023-09-29T00:13:14.612Z,4.45
2023-09-29T00:15:41.502Z,4.50
2023-09-29T00:18:11.489Z,3.03
2023-09-29T00:20:38.370Z,5.60
2023-09-29T00:23:05.209Z,3.65
2023-09-29T00:25:32.132Z,3.47
2023-09-29T00:27:59.170Z,3.40
2023-09-29T00:30:25.970Z,3.60
2023-09-29T00:32:54.929Z,3.50
2023-09-29T00:35:29.397Z,5.00
2023-09-29T00:38:00.785Z,5.57
2023-09-29T00:40:29.024Z,14.07
2023-09-29T00:42:56.281Z,7.50
2023-09-29T00:45:27.190Z,3.38
2023-09-29T00:48:05.253Z,4.07
2023-09-29T00:50:32.225Z,5.63
2023-09-29T00:53:01.214Z,4.20
2023-09-29T00:55:30.994Z,3.22
2023-09-29T00:58:02.041Z,8.90
2023-09-29T01:00:30.334Z,4.50
2023-09-29T01:02:58.830Z,4.20
2023-09-29T01:05:26.575Z,5.22
2023-09-29T01:07:53.744Z,6.65
2023-09-29T01:10:20.617Z,6.63
2023-09-29T01:12:47.653Z,5.97
2023-09-29T01:15:51.252Z,6.55
2023-09-29T01:18:18.325Z,3.88
2023-09-29T01:20:45.698Z,4.10
2023-09-29T01:23:12.757Z,3.60
2023-09-29T01:25:39.680Z,10.23
2023-09-29T01:28:08.440Z,3.97
2023-09-29T01:30:35.782Z,4.05
2023-09-29T01:33:03.785Z,3.75
2023-09-29T01:35:31.144Z,4.90
2023-09-29T01:38:02.380Z,3.88
2023-09-29T01:40:30.195Z,7.50
2023-09-29T01:42:58.133Z,7.18
2023-09-29T01:45:26.681Z,4.50
2023-09-29T01:47:54.408Z,6.45
2023-09-29T01:50:22.265Z,6.10
2023-09-29T01:52:49.881Z,5.00
2023-09-29T01:55:21.335Z,4.15
2023-09-29T01:57:50.206Z,4.85
2023-09-29T02:00:25.171Z,5.22
2023-09-29T02:02:54.676Z,4.95
2023-09-29T02:05:22.122Z,3.30
2023-09-29T02:07:52.923Z,6.18
2023-09-29T02:10:22.009Z,3.67
2023-09-29T02:12:57.144Z,6.57
2023-09-29T02:15:24.603Z,4.50
2023-09-29T02:17:51.789Z,5.57
2023-09-29T02:20:32.032Z,5.20
2023-09-29T02:23:00.584Z,4.72
2023-09-29T02:25:29.555Z,5.38
2023-09-29T02:27:58.188Z,3.63
2023-09-29T02:30:25.985Z,4.25
2023-09-29T02:32:57.228Z,4.70
2023-09-29T02:35:25.230Z,5.55
2023-09-29T02:37:53.779Z,6.22
2023-09-29T02:40:20.905Z,4.38
2023-09-29T02:42:47.801Z,6.05
2023-09-29T02:45:15.444Z,5.70
2023-09-29T02:47:44.100Z,5.53
2023-09-29T02:50:12.785Z,5.68
2023-09-29T02:52:40.717Z,7.30
2023-09-29T02:55:14.000Z,7.13
2023-09-29T02:57:42.601Z,5.78
2023-09-29T03:00:23.124Z,4.80
2023-09-29T03:02:54.615Z,5.22
2023-09-29T03:05:22.897Z,4.82
2023-09-29T03:07:51.655Z,5.38
2023-09-29T03:10:21.315Z,4.38
2023-09-29T03:12:49.702Z,4.32
2023-09-29T03:15:17.378Z,3.50
2023-09-29T03:18:07.127Z,4.90
2023-09-29T03:20:34.080Z,4.82
2023-09-29T03:23:05.402Z,5.35
2023-09-29T03:25:32.481Z,7.43
2023-09-29T03:28:01.014Z,8.32
2023-09-29T03:30:28.050Z,6.03
2023-09-29T03:32:58.511Z,3.90
2023-09-29T03:35:25.492Z,7.28
2023-09-29T03:37:52.305Z,4.88
2023-09-29T03:40:19.692Z,5.45
2023-09-29T03:42:48.024Z,5.30
2023-09-29T03:45:17.980Z,5.10
2023-09-29T03:47:48.424Z,3.53
2023-09-29T03:50:15.377Z,3.90
2023-09-29T03:52:47.348Z,5.38
2023-09-29T03:55:17.509Z,4.35
2023-09-29T03:57:45.730Z,4.82
2023-09-29T04:00:13.617Z,3.78
2023-09-29T04:02:41.943Z,6.45
2023-09-29T04:05:10.226Z,4.90
2023-09-29T04:07:38.678Z,4.43
2023-09-29T04:10:06.116Z,9.10
2023-09-29T04:12:34.916Z,4.25
2023-09-29T04:15:04.076Z,6.32
2023-09-29T04:17:31.221Z,5.63
2023-09-29T04:19:58.013Z,7.70
2023-09-29T04:22:25.319Z,5.47
2023-09-29T04:24:52.790Z,5.60
2023-09-29T04:27:19.688Z,5.90
2023-09-29T04:29:49.965Z,7.18
2023-09-29T04:32:20.367Z,5.85
2023-09-29T04:34:47.251Z,3.58
2023-09-29T04:37:14.967Z,5.03
2023-09-29T04:39:41.754Z,6.28
2023-09-29T04:42:08.654Z,4.65
2023-09-29T04:44:35.510Z,4.93
2023-09-29T04:47:02.338Z,4.82
2023-09-29T04:49:29.120Z,4.53
2023-09-29T04:51:55.893Z,7.30
2023-09-29T04:54:22.716Z,4.47
2023-09-29T04:56:49.572Z,4.43
2023-09-29T04:59:16.553Z,6.10
2023-09-29T05:01:43.379Z,5.13
2023-09-29T05:04:10.313Z,6.15
2023-09-29T05:06:37.195Z,5.97
2023-09-29T05:09:04.278Z,7.32
2023-09-29T05:11:33.860Z,7.22
2023-09-29T05:14:01.029Z,8.90
2023-09-29T05:16:27.912Z,4.82
2023-09-29T05:18:55.969Z,7.22
2023-09-29T05:21:25.097Z,6.57
2023-09-29T05:23:51.966Z,6.90
2023-09-29T05:26:18.913Z,8.63
2023-09-29T05:28:45.693Z,7.65
2023-09-29T05:31:12.650Z,11.10
2023-09-29T05:33:39.533Z,9.73
2023-09-29T05:36:06.632Z,10.65
2023-09-29T05:38:33.526Z,12.65
2023-09-29T05:41:00.494Z,10.30
2023-09-29T05:43:27.613Z,13.55
2023-09-29T05:45:54.568Z,10.63
2023-09-29T05:48:21.460Z,10.88
2023-09-29T05:50:50.684Z,11.00
2023-09-29T05:53:17.979Z,12.13
2023-09-29T05:55:44.805Z,12.77
2023-09-29T05:58:11.553Z,11.18
2023-09-29T06:00:38.731Z,8.73
2023-09-29T06:03:05.878Z,13.88
2023-09-29T06:05:33.791Z,12.50
2023-09-29T06:08:03.306Z,8.60
2023-09-29T06:10:30.159Z,8.38
2023-09-29T06:12:57.031Z,8.20
2023-09-29T06:15:24.350Z,8.25
2023-09-29T06:17:51.421Z,8.85
2023-09-29T06:20:20.007Z,6.85
2023-09-29T06:22:48.374Z,8.57
2023-09-29T06:25:15.307Z,8.25
2023-09-29T06:27:42.320Z,34.20
2023-09-29T06:30:09.419Z,49.17
2023-09-29T06:32:36.370Z,30.50
2023-09-29T06:35:04.061Z,21.23
2023-09-29T06:37:30.932Z,9.77
2023-09-29T06:39:57.717Z,9.48
2023-09-29T06:42:24.551Z,7.45
2023-09-29T06:44:52.399Z,9.02
2023-09-29T06:47:19.259Z,9.60
2023-09-29T06:49:46.037Z,7.10
2023-09-29T06:52:12.979Z,8.85
2023-09-29T06:54:39.771Z,12.25
2023-09-29T06:57:06.638Z,9.75
2023-09-29T06:59:33.507Z,9.93
2023-09-29T07:02:00.476Z,8.88
2023-09-29T07:04:27.510Z,9.63
2023-09-29T07:06:54.403Z,8.90
2023-09-29T07:09:21.251Z,7.85
2023-09-29T07:11:48.594Z,7.47
2023-09-29T07:14:19.412Z,10.95
2023-09-29T07:16:50.928Z,8.40
2023-09-29T07:19:18.072Z,7.55
2023-09-29T07:21:44.958Z,8.05
2023-09-29T07:24:11.959Z,8.30
2023-09-29T07:26:39.645Z,9.68
2023-09-29T07:29:06.660Z,11.52
2023-09-29T07:31:39.336Z,11.48
2023-09-29T07:34:06.205Z,10.38
2023-09-29T07:36:34.586Z,11.95
2023-09-29T07:39:01.846Z,11.10
2023-09-29T07:41:29.173Z,15.75
2023-09-29T07:43:56.034Z,11.38
2023-09-29T07:46:23.039Z,11.77
2023-09-29T07:48:49.985Z,11.80
2023-09-29T07:51:18.853Z,15.60
2023-09-29T07:53:45.705Z,16.95
2023-09-29T07:56:12.563Z,13.75
2023-09-29T07:58:40.055Z,10.20
2023-09-29T08:01:06.896Z,11.32
2023-09-29T08:03:34.160Z,13.00
2023-09-29T08:06:01.533Z,10.98
2023-09-29T08:08:29.714Z,16.95
2023-09-29T08:10:56.668Z,11.88
2023-09-29T08:13:25.263Z,16.65
2023-09-29T08:15:52.795Z,12.85
2023-09-29T08:18:19.832Z,13.20
2023-09-29T08:20:47.778Z,10.27
2023-09-29T08:23:14.799Z,12.25
2023-09-29T08:25:43.635Z,8.20
2023-09-29T08:28:11.034Z,10.30
2023-09-29T08:30:37.986Z,7.75
2023-09-29T08:33:20.243Z,8.88
2023-09-29T08:35:52.073Z,8.70
2023-09-29T08:38:18.966Z,9.73
2023-09-29T08:40:48.636Z,10.05
2023-09-29T08:43:16.564Z,11.57
2023-09-29T08:45:44.224Z,9.57
2023-09-29T08:48:13.532Z,9.63
2023-09-29T08:50:44.979Z,13.30
2023-09-29T08:53:12.822Z,8.55
2023-09-29T08:55:40.129Z,10.43
2023-09-29T08:58:08.671Z,10.18
2023-09-29T09:00:38.690Z,9.15
2023-09-29T09:03:06.328Z,9.40
2023-09-29T09:05:33.691Z,10.07
2023-09-29T09:08:02.981Z,11.35
2023-09-29T09:10:36.763Z,8.90
2023-09-29T09:13:04.306Z,12.50
2023-09-29T09:15:34.018Z,9.20
2023-09-29T09:18:01.710Z,7.80
2023-09-29T09:20:29.157Z,8.82
2023-09-29T09:23:04.066Z,7.88
2023-09-29T09:25:38.871Z,10.23
2023-09-29T09:28:07.621Z,8.95
2023-09-29T09:30:37.264Z,9.45
2023-09-29T09:33:06.585Z,8.00
2023-09-29T09:35:38.641Z,9.50
2023-09-29T09:38:05.867Z,10.95
2023-09-29T09:40:34.152Z,8.50
2023-09-29T09:43:05.912Z,8.13
2023-09-29T09:45:41.283Z,8.18
2023-09-29T09:48:11.484Z,8.27
2023-09-29T09:50:43.509Z,8.75
2023-09-29T09:53:13.710Z,7.05
2023-09-29T09:55:46.250Z,7.28
2023-09-29T09:58:15.177Z,7.85
2023-09-29T10:00:46.759Z,8.05
2023-09-29T10:03:17.993Z,7.43
2023-09-29T10:05:53.197Z,8.55
2023-09-29T10:08:35.864Z,7.28
2023-09-29T10:11:14.155Z,7.07
2023-09-29T10:13:43.960Z,7.93
2023-09-29T10:16:25.434Z,9.43
2023-09-29T10:18:58.819Z,9.63
2023-09-29T10:21:26.972Z,14.00
2023-09-29T10:23:53.951Z,7.20
2023-09-29T10:26:22.127Z,5.97
2023-09-29T10:29:02.055Z,9.15
2023-09-29T10:31:29.392Z,7.40
2023-09-29T10:33:58.487Z,6.53
2023-09-29T10:36:29.868Z,7.45
2023-09-29T10:39:00.137Z,6.70
2023-09-29T10:41:36.792Z,5.95
2023-09-29T10:44:05.580Z,7.45
2023-09-29T10:46:33.057Z,7.57
2023-09-29T10:49:02.352Z,6.53
2023-09-29T10:51:32.720Z,9.02
2023-09-29T10:54:13.924Z,6.97
2023-09-29T10:56:40.902Z,6.53
2023-09-29T10:59:10.318Z,7.60
2023-09-29T11:01:37.668Z,7.05
2023-09-29T11:04:10.116Z,6.57
2023-09-29T11:06:53.672Z,6.75
2023-09-29T11:09:23.193Z,5.57
2023-09-29T11:11:50.388Z,5.45
2023-09-29T11:14:18.538Z,6.10
2023-09-29T11:16:59.337Z,6.53
2023-09-29T11:19:31.380Z,4.38
2023-09-29T11:22:04.865Z,6.03
2023-09-29T11:24:41.627Z,6.95
2023-09-29T11:27:08.633Z,4.82
2023-09-29T11:29:36.137Z,5.47
2023-09-29T11:32:03.069Z,6.35
2023-09-29T11:34:31.149Z,5.93
2023-09-29T11:36:58.174Z,6.60
2023-09-29T11:39:25.239Z,7.55
2023-09-29T11:41:52.623Z,5.75
2023-09-29T11:44:20.001Z,4.75
2023-09-29T11:46:46.888Z,6.60
2023-09-29T11:49:13.811Z,4.75
2023-09-29T11:51:40.866Z,5.20
2023-09-29T11:54:08.034Z,3.85
2023-09-29T11:56:35.351Z,6.00
2023-09-29T11:59:04.375Z,4.03
2023-09-29T12:01:32.590Z,5.75
2023-09-29T12:03:59.990Z,4.45
2023-09-29T12:06:27.964Z,5.25
2023-09-29T12:08:54.974Z,6.68
2023-09-29T12:11:22.104Z,5.55
2023-09-29T12:13:49.740Z,4.82
2023-09-29T12:16:19.532Z,5.05
2023-09-29T12:18:49.607Z,5.85
2023-09-29T12:21:17.070Z,5.90
2023-09-29T12:23:44.025Z,4.97
2023-09-29T12:26:11.210Z,6.97
2023-09-29T12:28:38.305Z,4.25
2023-09-29T12:31:15.510Z,4.45
2023-09-29T12:33:42.320Z,6.43
2023-09-29T12:36:10.259Z,4.20
2023-09-29T12:38:37.442Z,3.88
2023-09-29T12:41:04.348Z,5.53
2023-09-29T12:43:31.398Z,4.10
2023-09-29T12:45:58.333Z,5.65
2023-09-29T12:48:25.168Z,5.90
2023-09-29T12:50:52.218Z,3.45
2023-09-29T12:53:19.235Z,3.90
2023-09-29T12:55:46.068Z,5.20
2023-09-29T12:58:12.866Z,5.68
2023-09-29T13:00:39.661Z,3.80
2023-09-29T13:03:07.540Z,4.15
2023-09-29T13:05:38.137Z,5.93
2023-09-29T13:08:06.553Z,6.97
2023-09-29T13:10:37.524Z,5.63
2023-09-29T13:13:06.819Z,4.18
2023-09-29T13:15:34.118Z,5.88
2023-09-29T13:18:01.266Z,3.10
2023-09-29T13:20:28.224Z,4.85
2023-09-29T13:22:55.868Z,3.95
2023-09-29T13:25:23.039Z,4.13
2023-09-29T13:27:50.135Z,5.05
2023-09-29T13:30:18.177Z,3.20
2023-09-29T13:32:45.619Z,3.63
2023-09-29T13:35:12.593Z,4.35
2023-09-29T13:37:40.048Z,4.13
2023-09-29T13:40:07.765Z,5.32
2023-09-29T13:42:36.814Z,4.13
2023-09-29T13:45:08.454Z,5.00
2023-09-29T13:47:36.397Z,6.03
2023-09-29T13:50:05.966Z,3.22
2023-09-29T13:52:32.830Z,3.28
2023-09-29T13:54:59.909Z,4.43
2023-09-29T13:57:26.792Z,3.42
2023-09-29T13:59:53.792Z,5.45
2023-09-29T14:02:21.282Z,4.72
2023-09-29T14:04:48.192Z,3.70
2023-09-29T14:07:15.262Z,4.18
2023-09-29T14:09:42.181Z,4.82
2023-09-29T14:12:10.130Z,5.43
2023-09-29T14:14:37.861Z,4.35
2023-09-29T14:17:06.237Z,4.97
2023-09-29T14:19:33.741Z,5.60
2023-09-29T14:22:04.052Z,3.65
2023-09-29T14:24:32.650Z,4.88
2023-09-29T14:26:59.865Z,5.72
2023-09-29T14:29:26.779Z,4.50
2023-09-29T14:31:54.448Z,6.57
2023-09-29T14:34:21.323Z,3.92
2023-09-29T14:36:48.242Z,4.07
2023-09-29T14:39:16.623Z,6.85
2023-09-29T14:41:45.274Z,4.20
2023-09-29T14:44:12.564Z,5.22
2023-09-29T14:46:39.604Z,8.40
2023-09-29T14:49:06.515Z,8.05
2023-09-29T14:51:33.641Z,4.40
2023-09-29T14:54:01.465Z,6.50
2023-09-29T14:56:28.528Z,4.82
2023-09-29T14:58:55.427Z,4.65
2023-09-29T15:01:22.378Z,3.47
2023-09-29T15:03:52.290Z,4.70
2023-09-29T15:06:19.228Z,4.75
2023-09-29T15:08:46.650Z,5.10
2023-09-29T15:11:19.212Z,4.75
2023-09-29T15:13:47.253Z,4.35
2023-09-29T15:16:18.094Z,10.77
2023-09-29T15:18:49.792Z,4.88
2023-09-29T15:21:16.852Z,5.18
2023-09-29T18:12:36.584Z,5.80
2023-09-29T18:15:04.004Z,6.10
2023-09-29T18:17:30.962Z,6.57
2023-09-29T18:19:57.776Z,6.28
2023-09-29T18:22:24.544Z,5.88
2023-09-29T18:24:53.311Z,6.15
2023-09-29T18:27:20.178Z,6.13
2023-09-29T18:29:47.135Z,7.57
2023-09-29T18:32:13.883Z,9.10
2023-09-29T18:34:40.691Z,7.35
2023-09-29T18:37:08.025Z,7.53
2023-09-29T18:39:34.944Z,10.02
2023-09-29T18:42:02.120Z,7.68
2023-09-29T18:44:29.815Z,8.70
2023-09-29T18:46:56.585Z,6.72
2023-09-29T18:49:23.329Z,7.65
2023-09-29T18:51:50.098Z,8.32
2023-09-29T18:54:20.441Z,11.18
2023-09-29T18:56:47.503Z,9.07
2023-09-29T18:59:21.884Z,11.85
2023-09-29T19:04:17.028Z,12.20
2023-09-29T19:06:44.312Z,13.45
2023-09-29T19:09:11.515Z,13.70
2023-09-29T19:11:41.219Z,12.65
2023-09-29T19:14:10.891Z,15.60
2023-09-29T19:16:39.049Z,18.55
2023-09-29T19:19:05.864Z,21.05
2023-09-29T19:21:32.736Z,19.05
2023-09-29T19:23:59.585Z,18.77
2023-09-29T19:26:27.912Z,19.33
2023-09-29T19:28:57.994Z,20.27
2023-09-29T19:31:30.250Z,21.15
2023-09-29T19:33:58.742Z,20.58
2023-09-29T19:36:29.408Z,25.90
2023-09-29T19:39:05.962Z,23.38
2023-09-29T19:41:33.614Z,21.95
2023-09-29T19:44:00.710Z,22.95
2023-09-29T19:46:38.653Z,20.17
2023-09-29T19:49:06.105Z,21.42
2023-09-29T19:51:33.029Z,22.73
2023-09-29T19:54:01.016Z,22.95
2023-09-29T19:56:34.544Z,20.35
2023-09-29T19:59:02.274Z,21.25
2023-09-29T20:01:29.326Z,24.85
2023-09-29T20:03:56.847Z,26.30
2023-09-29T20:06:24.526Z,22.98
2023-09-29T20:08:54.170Z,26.60
2023-09-29T20:11:26.188Z,27.05
2023-09-29T20:13:53.028Z,23.60
2023-09-29T20:16:20.026Z,24.33
2023-09-29T20:18:50.044Z,27.02
2023-09-29T20:21:18.073Z,24.25
2023-09-29T20:23:45.046Z,24.73
2023-09-29T20:26:11.900Z,25.27
2023-09-29T20:28:38.700Z,24.40
2023-09-29T20:31:06.502Z,26.40
2023-09-29T20:33:33.926Z,24.02
2023-09-29T20:36:03.530Z,25.48
2023-09-29T20:38:30.839Z,24.98
2023-09-29T20:40:58.049Z,27.35
2023-09-29T20:43:25.129Z,25.13
2023-09-29T20:46:07.180Z,25.67
2023-09-29T20:48:47.421Z,27.13
2023-09-29T20:51:14.736Z,27.23
2023-09-29T20:53:42.072Z,24.88
2023-09-29T20:56:09.179Z,22.70
2023-09-29T20:58:35.951Z,25.60
2023-09-29T21:01:13.172Z,27.85
2023-09-29T21:03:47.683Z,24.45
2023-09-29T21:08:49.015Z,25.65
2023-09-29T21:11:17.861Z,26.35
2023-09-29T21:13:44.664Z,23.90
2023-09-29T21:16:14.455Z,25.58
2023-09-29T21:18:41.378Z,26.90
2023-09-29T21:21:10.383Z,24.75
2023-09-29T21:23:37.650Z,22.98
2023-09-29T21:26:13.916Z,22.95
2023-09-29T21:28:42.655Z,27.02
2023-09-29T21:31:14.606Z,25.65
2023-09-29T21:33:41.875Z,25.33
2023-09-29T21:36:17.868Z,28.17
2023-09-29T21:38:44.815Z,27.02
2023-09-29T21:41:13.930Z,22.30
2023-09-29T21:43:41.047Z,25.50
2023-09-29T21:46:08.269Z,27.80
2023-09-29T21:48:36.650Z,26.05
2023-09-29T21:51:03.645Z,24.33
2023-09-29T21:53:32.544Z,27.45
2023-09-29T21:55:59.411Z,26.23
2023-09-29T21:58:26.269Z,29.38
2023-09-29T22:00:55.211Z,23.75
2023-09-29T22:03:23.497Z,25.23
2023-09-29T22:05:54.754Z,31.63
2023-09-29T22:08:24.077Z,29.75
2023-09-29T22:10:52.362Z,30.00
2023-09-29T22:13:23.692Z,26.23
2023-09-29T22:15:50.601Z,28.45
2023-09-29T22:18:26.367Z,27.95
2023-09-29T22:20:53.129Z,25.48
2023-09-29T22:23:19.899Z,25.92
2023-09-29T22:25:48.356Z,25.70
2023-09-29T22:28:18.674Z,27.27
2023-09-29T22:30:53.322Z,27.75
2023-09-29T22:33:22.329Z,25.30
2023-09-29T22:35:49.381Z,27.33
2023-09-29T22:38:19.371Z,25.00
2023-09-29T22:40:47.641Z,25.13
2023-09-29T22:43:14.400Z,24.02
2023-09-29T22:45:43.226Z,27.52
2023-09-29T22:48:12.185Z,28.90
2023-09-29T22:50:42.327Z,29.52
2023-09-29T22:53:09.137Z,25.38
2023-09-29T22:55:36.131Z,28.05
2023-09-29T22:58:03.183Z,25.20
2023-09-29T23:00:30.084Z,25.75
2023-09-29T23:02:57.504Z,24.00
2023-09-29T23:05:24.360Z,26.15
2023-09-29T23:07:51.092Z,28.70
2023-09-29T23:10:17.890Z,28.90
2023-09-29T23:12:47.545Z,25.42
2023-09-29T23:15:15.279Z,25.85
2023-09-29T23:17:42.227Z,25.77
2023-09-29T23:20:11.643Z,25.30
2023-09-29T23:22:40.114Z,25.33
2023-09-29T23:25:08.769Z,22.52
2023-09-29T23:27:35.519Z,22.75
2023-09-29T23:30:04.942Z,26.20
2023-09-29T23:32:32.768Z,25.23
2023-09-29T23:34:59.836Z,25.27
2023-09-29T23:37:26.920Z,28.23
2023-09-29T23:39:54.096Z,22.85
2023-09-29T23:42:21.153Z,26.83
2023-09-29T23:44:48.135Z,22.02
2023-09-29T23:47:14.900Z,25.65
2023-09-29T23:49:41.666Z,19.35
2023-09-29T23:52:09.302Z,24.77
2023-09-29T23:54:37.855Z,23.35
2023-09-29T23:57:04.934Z,24.45
2023-09-29T23:59:34.917Z,25.17
